createdAt,value
2023-01-22T00:01:13.506Z,11.85
2023-01-22T00:03:41.936Z,10.70
2023-01-22T00:06:11.282Z,10.85
2023-01-22T00:08:40.477Z,10.57
2023-01-22T00:11:08.310Z,10.20
2023-01-22T00:13:36.288Z,10.68
2023-01-22T00:16:04.221Z,11.93
2023-01-22T00:18:32.162Z,10.93
2023-01-22T00:21:00.249Z,11.18
2023-01-22T00:23:28.272Z,11.20
2023-01-22T00:26:03.373Z,10.25
2023-01-22T00:28:31.426Z,9.93
2023-01-22T00:30:59.679Z,10.85
2023-01-22T00:33:27.904Z,10.10
2023-01-22T00:35:56.858Z,11.15
2023-01-22T00:38:24.696Z,9.90
2023-01-22T00:40:52.492Z,10.80
2023-01-22T00:43:21.753Z,11.23
2023-01-22T00:45:49.537Z,10.18
2023-01-22T00:48:17.401Z,11.52
2023-01-22T00:50:45.327Z,10.32
2023-01-22T00:53:13.114Z,11.88
2023-01-22T00:55:40.903Z,11.43
2023-01-22T00:58:08.801Z,10.65
2023-01-22T01:00:38.045Z,10.15
2023-01-22T01:03:23.398Z,11.43
2023-01-22T01:05:51.192Z,10.05
2023-01-22T01:08:18.983Z,11.70
2023-01-22T01:10:47.042Z,10.55
2023-01-22T01:13:14.981Z,10.68
2023-01-22T01:15:44.344Z,10.48
2023-01-22T01:18:14.259Z,11.13
2023-01-22T01:20:42.251Z,10.52
2023-01-22T01:23:10.051Z,10.77
2023-01-22T01:25:41.462Z,11.35
2023-01-22T01:28:09.268Z,10.68
2023-01-22T01:30:37.159Z,11.43
2023-01-22T01:33:06.422Z,11.35
2023-01-22T01:35:34.223Z,11.48
2023-01-22T01:38:02.003Z,11.05
2023-01-22T01:40:29.918Z,10.85
2023-01-22T01:42:57.842Z,10.88
2023-01-22T01:45:31.146Z,10.18
2023-01-22T01:48:09.022Z,11.23
2023-01-22T01:50:40.252Z,10.55
2023-01-22T01:53:09.493Z,10.57
2023-01-22T01:55:40.542Z,10.82
2023-01-22T01:58:14.588Z,10.48
2023-01-22T02:00:45.656Z,10.25
2023-01-22T02:03:14.913Z,11.02
2023-01-22T02:05:42.747Z,10.40
2023-01-22T02:08:10.854Z,11.18
2023-01-22T02:10:39.513Z,10.45
2023-01-22T02:13:11.159Z,10.30
2023-01-22T02:15:40.178Z,11.07
2023-01-22T02:18:08.079Z,10.80
2023-01-22T02:20:39.013Z,10.05
2023-01-22T02:23:09.082Z,11.40
2023-01-22T02:25:36.867Z,11.38
2023-01-22T02:28:04.963Z,10.82
2023-01-22T02:30:32.748Z,10.45
2023-01-22T02:33:00.514Z,10.95
2023-01-22T02:35:28.340Z,10.55
2023-01-22T02:37:57.557Z,10.30
2023-01-22T02:40:25.455Z,11.93
2023-01-22T02:42:54.803Z,10.32
2023-01-22T02:45:22.601Z,10.70
2023-01-22T02:47:50.935Z,10.40
2023-01-22T02:50:19.542Z,10.35
2023-01-22T02:52:47.600Z,10.30
2023-01-22T02:55:16.869Z,10.55
2023-01-22T02:57:46.090Z,11.02
2023-01-22T03:00:15.223Z,11.48
2023-01-22T03:02:43.354Z,11.63
2023-01-22T03:05:11.164Z,10.75
2023-01-22T03:07:44.853Z,11.05
2023-01-22T03:10:15.985Z,10.73
2023-01-22T03:13:04.809Z,10.60
2023-01-22T03:15:50.618Z,10.25
2023-01-22T03:18:36.862Z,10.85
2023-01-22T03:21:14.144Z,9.82
2023-01-22T03:23:43.519Z,9.93
2023-01-22T03:26:12.949Z,9.93
2023-01-22T03:28:42.298Z,10.38
2023-01-22T03:31:10.883Z,10.20
2023-01-22T03:33:38.856Z,10.32
2023-01-22T03:36:11.355Z,10.23
2023-01-22T03:38:43.040Z,10.43
2023-01-22T03:41:17.803Z,10.63
2023-01-22T03:43:48.898Z,10.48
2023-01-22T03:46:21.092Z,9.68
2023-01-22T03:48:53.907Z,9.57
2023-01-22T03:51:22.215Z,9.32
2023-01-22T03:53:51.007Z,10.30
2023-01-22T03:56:22.592Z,9.95
2023-01-22T03:58:52.838Z,9.48
2023-01-22T04:01:23.485Z,10.63
2023-01-22T04:03:52.953Z,9.63
2023-01-22T04:06:24.057Z,9.57
2023-01-22T04:08:54.497Z,9.50
2023-01-22T04:11:26.858Z,10.07
2023-01-22T04:13:56.983Z,10.30
2023-01-22T04:16:26.363Z,9.20
2023-01-22T04:19:14.687Z,9.40
2023-01-22T04:22:01.428Z,9.75
2023-01-22T04:24:29.329Z,9.35
2023-01-22T04:26:57.109Z,9.43
2023-01-22T04:29:26.510Z,8.82
2023-01-22T04:31:54.638Z,9.23
2023-01-22T04:34:36.826Z,9.13
2023-01-22T04:37:17.660Z,9.02
2023-01-22T04:39:45.941Z,9.13
2023-01-22T04:42:13.734Z,9.15
2023-01-22T04:44:42.937Z,8.55
2023-01-22T04:47:10.813Z,8.27
2023-01-22T04:49:40.365Z,8.88
2023-01-22T04:52:11.369Z,9.07
2023-01-22T04:54:39.271Z,9.05
2023-01-22T04:57:07.868Z,9.15
2023-01-22T04:59:35.805Z,8.80
2023-01-22T05:02:05.916Z,8.57
2023-01-22T05:04:34.345Z,8.10
2023-01-22T05:07:02.804Z,9.25
2023-01-22T05:09:31.377Z,8.52
2023-01-22T05:12:01.473Z,9.25
2023-01-22T05:14:34.251Z,8.35
2023-01-22T05:17:03.005Z,8.27
2023-01-22T05:19:32.153Z,8.93
2023-01-22T05:22:00.043Z,8.18
2023-01-22T05:24:27.847Z,8.82
2023-01-22T05:26:55.673Z,9.00
2023-01-22T05:29:30.565Z,8.40
2023-01-22T05:32:18.719Z,10.00
2023-01-22T05:34:54.313Z,8.88
2023-01-22T05:37:22.377Z,8.90
2023-01-22T05:39:51.730Z,8.68
2023-01-22T05:42:20.929Z,9.10
2023-01-22T05:44:50.744Z,8.60
2023-01-22T05:47:22.035Z,8.55
2023-01-22T05:50:12.234Z,8.65
2023-01-22T05:52:40.083Z,9.18
2023-01-22T05:55:09.667Z,9.23
2023-01-22T05:57:42.800Z,8.63
2023-01-22T06:00:12.964Z,9.45
2023-01-22T06:02:55.868Z,8.88
2023-01-22T06:05:25.161Z,9.13
2023-01-22T06:08:01.218Z,9.30
2023-01-22T06:10:36.747Z,8.05
2023-01-22T06:13:05.179Z,8.60
2023-01-22T06:15:33.960Z,8.75
2023-01-22T06:18:14.709Z,9.15
2023-01-22T06:20:43.912Z,9.98
2023-01-22T06:23:11.784Z,9.93
2023-01-22T06:25:39.781Z,9.60
2023-01-22T06:28:14.867Z,9.95
2023-01-22T06:30:43.966Z,9.45
2023-01-22T06:33:11.809Z,9.68
2023-01-22T06:35:39.709Z,8.95
2023-01-22T06:38:09.701Z,9.07
2023-01-22T06:40:37.649Z,8.25
2023-01-22T06:43:10.567Z,8.85
2023-01-22T06:45:39.510Z,8.48
2023-01-22T06:48:09.701Z,8.65
2023-01-22T06:50:37.490Z,8.73
2023-01-22T06:53:05.300Z,8.63
2023-01-22T06:55:34.614Z,8.05
2023-01-22T06:58:03.271Z,8.23
2023-01-22T07:00:31.214Z,8.90
2023-01-22T07:02:58.956Z,8.63
2023-01-22T07:05:27.429Z,8.43
2023-01-22T07:07:56.101Z,8.95
2023-01-22T07:10:23.938Z,8.25
2023-01-22T07:12:55.980Z,7.93
2023-01-22T07:15:24.056Z,9.00
2023-01-22T07:17:52.404Z,8.63
2023-01-22T07:20:20.922Z,8.80
2023-01-22T07:22:48.734Z,8.75
2023-01-22T07:25:16.868Z,8.10
2023-01-22T07:27:44.695Z,9.43
2023-01-22T07:30:15.063Z,8.38
2023-01-22T07:32:43.058Z,8.70
2023-01-22T07:35:10.935Z,8.40
2023-01-22T07:37:38.716Z,7.93
2023-01-22T07:40:07.865Z,7.35
2023-01-22T07:42:37.818Z,7.65
2023-01-22T07:45:07.470Z,7.60
2023-01-22T07:47:36.629Z,8.00
2023-01-22T07:50:05.125Z,7.60
2023-01-22T07:52:32.836Z,7.72
2023-01-22T07:55:00.686Z,7.57
2023-01-22T07:57:28.543Z,7.85
2023-01-22T07:59:56.397Z,8.25
2023-01-22T08:02:24.222Z,7.82
2023-01-22T08:04:53.423Z,8.05
2023-01-22T08:07:22.997Z,7.53
2023-01-22T08:09:50.985Z,7.28
2023-01-22T08:12:18.727Z,7.82
2023-01-22T08:14:46.553Z,7.38
2023-01-22T08:17:14.409Z,7.78
2023-01-22T08:19:42.253Z,7.78
2023-01-22T08:22:11.410Z,7.43
2023-01-22T08:24:39.924Z,7.50
2023-01-22T08:27:07.686Z,7.28
2023-01-22T08:29:35.509Z,7.35
2023-01-22T08:32:03.424Z,6.93
2023-01-22T08:34:31.381Z,7.30
2023-01-22T08:36:59.142Z,7.65
2023-01-22T08:39:28.543Z,7.07
2023-01-22T08:41:57.590Z,8.00
2023-01-22T08:44:25.609Z,7.53
2023-01-22T08:46:54.017Z,7.38
2023-01-22T08:49:22.432Z,7.32
2023-01-22T08:51:50.691Z,7.65
2023-01-22T08:54:18.833Z,7.97
2023-01-22T08:56:48.092Z,7.45
2023-01-22T08:59:16.434Z,6.97
2023-01-22T09:01:44.334Z,7.20
2023-01-22T09:04:12.251Z,7.93
2023-01-22T09:06:41.189Z,7.68
2023-01-22T09:09:09.308Z,8.30
2023-01-22T09:11:37.069Z,8.50
2023-01-22T09:14:08.365Z,7.75
2023-01-22T09:16:36.784Z,7.60
2023-01-22T09:19:05.183Z,7.82
2023-01-22T09:21:33.812Z,7.50
2023-01-22T09:24:01.896Z,7.72
2023-01-22T09:26:32.183Z,7.13
2023-01-22T09:29:00.711Z,8.18
2023-01-22T09:31:29.918Z,7.82
2023-01-22T09:33:57.764Z,8.20
2023-01-22T09:36:25.546Z,8.35
2023-01-22T09:38:53.594Z,7.82
2023-01-22T09:41:25.987Z,7.05
2023-01-22T09:43:58.101Z,8.35
2023-01-22T09:46:31.451Z,7.43
2023-01-22T09:49:09.288Z,7.38
2023-01-22T09:51:37.830Z,8.10
2023-01-22T09:54:07.568Z,8.55
2023-01-22T09:56:39.935Z,8.38
2023-01-22T09:59:08.862Z,7.95
2023-01-22T10:01:38.764Z,7.63
2023-01-22T10:04:15.188Z,6.93
2023-01-22T10:06:45.509Z,8.05
2023-01-22T10:09:16.130Z,7.65
2023-01-22T10:11:50.696Z,8.10
2023-01-22T10:14:21.466Z,8.30
2023-01-22T10:16:50.787Z,7.68
2023-01-22T10:19:23.272Z,7.43
2023-01-22T10:21:56.946Z,7.88
2023-01-22T10:24:24.744Z,7.30
2023-01-22T10:26:55.445Z,7.72
2023-01-22T10:29:26.230Z,7.68
2023-01-22T10:31:57.950Z,7.70
2023-01-22T10:34:31.315Z,8.18
2023-01-22T10:37:02.986Z,7.68
2023-01-22T10:39:40.557Z,8.50
2023-01-22T10:42:08.395Z,7.93
2023-01-22T10:44:36.536Z,7.75
2023-01-22T10:47:18.472Z,7.60
2023-01-22T10:49:46.283Z,8.20
2023-01-22T10:52:33.401Z,7.97
2023-01-22T10:55:01.639Z,7.82
2023-01-22T10:57:33.419Z,7.65
2023-01-22T11:00:09.006Z,7.88
2023-01-22T11:02:43.088Z,7.78
2023-01-22T11:05:18.495Z,8.18
2023-01-22T11:07:48.168Z,8.30
2023-01-22T11:10:23.926Z,9.55
2023-01-22T11:12:54.632Z,8.23
2023-01-22T11:15:27.688Z,8.57
2023-01-22T11:20:29.391Z,8.48
2023-01-22T11:23:18.049Z,8.82
2023-01-22T11:25:50.299Z,8.38
2023-01-22T11:28:29.756Z,8.52
2023-01-22T11:31:07.734Z,8.65
2023-01-22T11:33:52.432Z,8.85
2023-01-22T11:36:27.386Z,8.63
2023-01-22T11:39:02.023Z,8.68
2023-01-22T11:41:55.958Z,8.82
2023-01-22T11:44:41.553Z,9.00
2023-01-22T11:47:30.219Z,9.13
2023-01-22T11:50:11.763Z,8.25
2023-01-22T11:52:49.244Z,9.02
2023-01-22T11:55:45.075Z,8.35
2023-01-22T11:58:19.872Z,8.07
2023-01-22T12:00:55.458Z,8.63
2023-01-22T12:04:00.179Z,7.95
2023-01-22T12:06:46.425Z,8.88
2023-01-22T12:09:22.384Z,8.10
2023-01-22T12:12:04.957Z,8.80
2023-01-22T12:14:41.529Z,8.30
2023-01-22T12:17:26.010Z,8.60
2023-01-22T12:20:13.989Z,8.95
2023-01-22T12:22:48.351Z,8.20
2023-01-22T12:25:22.418Z,8.35
2023-01-22T12:27:55.602Z,8.23
2023-01-22T12:30:28.715Z,8.93
2023-01-22T12:33:00.599Z,7.78
2023-01-22T12:35:31.491Z,8.35
2023-01-22T12:38:12.286Z,8.40
2023-01-22T12:41:13.765Z,8.15
2023-01-22T12:43:47.694Z,7.80
2023-01-22T12:46:22.967Z,10.50
2023-01-22T12:49:00.035Z,8.40
2023-01-22T12:51:35.733Z,9.05
2023-01-22T12:54:21.455Z,9.02
2023-01-22T12:56:50.254Z,8.63
2023-01-22T12:59:43.958Z,8.63
2023-01-22T13:02:25.204Z,8.65
2023-01-22T13:04:53.898Z,9.02
2023-01-22T13:07:24.307Z,8.45
2023-01-22T13:10:03.502Z,8.90
2023-01-22T13:12:43.676Z,11.00
2023-01-22T13:15:18.206Z,9.35
2023-01-22T13:18:06.202Z,10.40
2023-01-22T13:20:37.326Z,11.10
2023-01-22T13:23:07.580Z,9.32
2023-01-22T13:25:36.798Z,10.60
2023-01-22T13:28:04.991Z,9.18
2023-01-22T13:30:32.886Z,8.95
2023-01-22T13:33:11.954Z,9.77
2023-01-22T13:35:43.201Z,9.63
2023-01-22T13:38:22.122Z,10.00
2023-01-22T13:40:57.302Z,9.82
2023-01-22T13:43:26.163Z,11.02
2023-01-22T13:45:56.903Z,11.27
2023-01-22T13:48:26.990Z,11.32
2023-01-22T13:50:58.741Z,9.40
2023-01-22T13:53:31.260Z,9.52
2023-01-22T13:56:01.191Z,11.30
2023-01-22T13:58:49.228Z,11.77
2023-01-22T14:01:29.408Z,9.82
2023-01-22T14:04:01.941Z,10.00
2023-01-22T14:06:31.571Z,9.60
2023-01-22T14:08:59.562Z,11.77
2023-01-22T14:11:38.896Z,11.27
2023-01-22T14:14:16.977Z,11.40
2023-01-22T14:16:45.306Z,11.30
2023-01-22T14:19:13.851Z,10.50
2023-01-22T14:21:41.907Z,10.75
2023-01-22T14:24:10.203Z,9.88
2023-01-22T14:26:39.771Z,9.55
2023-01-22T14:29:09.078Z,9.18
2023-01-22T14:31:37.027Z,10.95
2023-01-22T14:34:05.100Z,10.82
2023-01-22T14:36:32.933Z,10.73
2023-01-22T14:39:00.735Z,9.90
2023-01-22T14:41:28.592Z,9.82
2023-01-22T14:43:57.819Z,9.43
2023-01-22T14:46:25.767Z,10.90
2023-01-22T14:48:53.695Z,11.40
2023-01-22T14:51:21.601Z,10.05
2023-01-22T14:53:49.449Z,9.52
2023-01-22T14:56:17.253Z,9.57
2023-01-22T14:58:45.055Z,9.20
2023-01-22T15:01:19.202Z,8.98
2023-01-22T15:03:47.083Z,10.07
2023-01-22T15:06:15.176Z,9.90
2023-01-22T15:08:43.024Z,9.60
2023-01-22T15:11:10.901Z,11.02
2023-01-22T15:13:38.764Z,10.63
2023-01-22T15:16:08.137Z,9.23
2023-01-22T15:18:38.680Z,8.48
2023-01-22T15:21:08.711Z,10.93
2023-01-22T15:23:36.842Z,9.98
2023-01-22T15:26:06.234Z,9.55
2023-01-22T15:28:34.149Z,9.50
2023-01-22T15:31:07.499Z,9.93
2023-01-22T15:33:37.625Z,10.02
2023-01-22T15:36:06.641Z,10.07
2023-01-22T15:38:34.435Z,10.02
2023-01-22T15:41:19.863Z,9.88
2023-01-22T15:43:50.900Z,10.80
2023-01-22T15:46:19.439Z,10.10
2023-01-22T15:48:48.775Z,9.77
2023-01-22T15:51:17.307Z,10.85
2023-01-22T15:53:50.820Z,10.80
2023-01-22T15:56:19.436Z,10.55
2023-01-22T15:58:47.235Z,10.77
2023-01-22T16:01:15.575Z,11.68
2023-01-22T16:03:43.374Z,12.40
2023-01-22T16:06:15.018Z,12.80
2023-01-22T16:08:46.565Z,11.23
2023-01-22T16:11:14.843Z,10.95
2023-01-22T16:13:43.584Z,10.88
2023-01-22T16:16:17.290Z,10.00
2023-01-22T16:18:46.584Z,10.07
2023-01-22T16:21:16.557Z,10.43
2023-01-22T16:23:46.767Z,10.55
2023-01-22T16:26:17.281Z,10.48
2023-01-22T16:28:45.907Z,11.18
2023-01-22T16:31:16.457Z,10.73
2023-01-22T16:33:46.332Z,10.88
2023-01-22T16:36:17.736Z,10.98
2023-01-22T16:38:45.829Z,10.40
2023-01-22T16:41:25.519Z,10.48
2023-01-22T16:43:55.532Z,10.38
2023-01-22T16:46:25.326Z,10.77
2023-01-22T16:48:58.264Z,10.45
2023-01-22T16:51:29.958Z,11.90
2023-01-22T16:53:57.832Z,11.60
2023-01-22T16:56:25.721Z,10.85
2023-01-22T16:58:53.551Z,11.18
2023-01-22T17:01:22.219Z,12.85
2023-01-22T17:03:50.200Z,11.68
2023-01-22T17:06:23.703Z,12.15
2023-01-22T17:08:53.540Z,11.57
2023-01-22T17:11:21.650Z,11.63
2023-01-22T17:13:50.115Z,11.90
2023-01-22T17:16:18.487Z,11.63
2023-01-22T17:18:47.106Z,11.90
2023-01-22T17:21:17.515Z,12.60
2023-01-22T17:23:45.429Z,11.35
2023-01-22T17:26:17.329Z,11.27
2023-01-22T17:28:45.950Z,12.32
2023-01-22T17:31:17.146Z,13.70
2023-01-22T17:33:46.331Z,12.85
2023-01-22T17:36:15.578Z,11.35
2023-01-22T17:38:43.870Z,11.23
2023-01-22T17:41:15.914Z,12.45
2023-01-22T17:43:45.110Z,11.70
2023-01-22T17:46:15.257Z,12.00
2023-01-22T17:48:44.175Z,11.88
2023-01-22T17:51:14.622Z,12.77
2023-01-22T17:53:44.269Z,12.68
2023-01-22T17:56:15.603Z,13.80
2023-01-22T17:58:44.933Z,12.10
2023-01-22T18:01:15.041Z,12.30
2023-01-22T18:03:44.327Z,13.25
2023-01-22T18:06:13.482Z,11.50
2023-01-22T18:08:42.428Z,11.50
2023-01-22T18:11:12.850Z,10.48
2023-01-22T18:13:42.147Z,13.02
2023-01-22T18:16:12.048Z,12.48
2023-01-22T18:18:40.791Z,14.00
2023-01-22T18:21:10.927Z,11.73
2023-01-22T18:23:38.733Z,11.20
2023-01-22T18:26:08.246Z,11.52
2023-01-22T18:28:36.568Z,11.25
2023-01-22T18:31:07.658Z,12.10
2023-01-22T18:33:37.294Z,11.68
2023-01-22T18:36:08.485Z,11.52
2023-01-22T18:38:37.232Z,10.93
2023-01-22T18:41:06.400Z,12.20
2023-01-22T18:43:34.441Z,11.40
2023-01-22T18:46:08.694Z,11.02
2023-01-22T18:48:37.345Z,10.43
2023-01-22T18:51:06.712Z,11.55
2023-01-22T18:53:35.520Z,11.27
2023-01-22T18:56:06.325Z,11.48
2023-01-22T18:58:34.916Z,11.25
2023-01-22T19:01:11.720Z,11.90
2023-01-22T19:03:41.125Z,12.55
2023-01-22T19:06:13.975Z,11.35
2023-01-22T19:08:43.339Z,12.27
2023-01-22T19:11:12.223Z,11.50
2023-01-22T19:13:40.627Z,11.55
2023-01-22T19:16:11.852Z,12.02
2023-01-22T19:18:42.291Z,13.05
2023-01-22T19:21:12.808Z,12.35
2023-01-22T19:23:41.114Z,12.57
2023-01-22T19:26:12.931Z,11.18
2023-01-22T19:28:40.831Z,11.75
2023-01-22T19:31:18.008Z,11.73
2023-01-22T19:33:46.385Z,12.05
2023-01-22T19:36:14.568Z,12.60
2023-01-22T19:38:42.433Z,11.15
2023-01-22T19:41:10.407Z,12.00
2023-01-22T19:43:38.547Z,13.57
2023-01-22T19:46:09.491Z,12.88
2023-01-22T19:48:39.412Z,12.32
2023-01-22T19:51:10.300Z,12.40
2023-01-22T19:53:38.821Z,12.07
2023-01-22T19:56:15.039Z,13.73
2023-01-22T19:58:43.048Z,12.82
2023-01-22T20:01:11.709Z,13.77
2023-01-22T20:03:40.988Z,13.88
2023-01-22T20:06:11.251Z,13.13
2023-01-22T20:08:39.840Z,12.77
2023-01-22T20:11:09.303Z,13.20
2023-01-22T20:13:38.046Z,15.05
2023-01-22T20:16:07.691Z,12.80
2023-01-22T20:18:35.675Z,13.88
2023-01-22T20:21:04.961Z,12.55
2023-01-22T20:23:32.820Z,12.32
2023-01-22T20:26:02.267Z,11.90
2023-01-22T20:28:30.133Z,11.60
2023-01-22T20:30:59.634Z,12.50
2023-01-22T20:33:28.188Z,12.23
2023-01-22T20:35:57.196Z,12.00
2023-01-22T20:38:26.651Z,12.93
2023-01-22T20:40:54.928Z,12.70
2023-01-22T20:43:22.857Z,12.82
2023-01-22T20:46:00.337Z,13.30
2023-01-22T20:48:29.398Z,13.32
2023-01-22T20:50:57.379Z,12.70
2023-01-22T20:53:27.730Z,11.63
2023-01-22T20:56:00.315Z,12.27
2023-01-22T20:58:29.248Z,13.30
2023-01-22T21:00:57.434Z,13.18
2023-01-22T21:03:25.436Z,12.45
2023-01-22T21:05:53.251Z,12.57
2023-01-22T21:08:21.150Z,12.18
2023-01-22T21:10:58.364Z,12.57
2023-01-22T21:13:26.614Z,12.38
2023-01-22T21:15:54.736Z,13.50
2023-01-22T21:18:24.254Z,13.50
2023-01-22T21:20:52.026Z,12.60
2023-01-22T21:23:19.816Z,13.95
2023-01-22T21:25:47.625Z,13.77
2023-01-22T21:28:16.961Z,11.90
2023-01-22T21:30:44.785Z,15.02
2023-01-22T21:33:12.897Z,12.80
2023-01-22T21:35:40.679Z,13.95
2023-01-22T21:38:08.584Z,14.90
2023-01-22T21:40:36.622Z,13.75
2023-01-22T21:43:22.434Z,14.23
2023-01-22T21:46:09.339Z,14.40
2023-01-22T21:48:37.273Z,13.65
2023-01-22T21:51:05.602Z,14.35
2023-01-22T21:53:33.941Z,11.77
2023-01-22T21:56:01.910Z,12.52
2023-01-22T21:58:29.996Z,11.63
2023-01-22T22:01:06.085Z,9.77
2023-01-22T22:03:35.831Z,11.02
2023-01-22T22:06:03.874Z,10.88
2023-01-22T22:08:31.781Z,11.00
2023-01-22T22:11:00.111Z,12.63
2023-01-22T22:13:27.996Z,10.30
2023-01-22T22:15:55.821Z,10.32
2023-01-22T22:18:25.149Z,11.48
2023-01-22T22:20:53.001Z,10.48
2023-01-22T22:23:20.882Z,12.15
2023-01-22T22:25:48.994Z,10.23
2023-01-22T22:28:17.670Z,11.55
2023-01-22T22:30:45.565Z,10.48
2023-01-22T22:33:13.406Z,9.45
2023-01-22T22:35:45.412Z,10.60
2023-01-22T22:38:13.426Z,10.10
2023-01-22T22:40:41.657Z,10.43
2023-01-22T22:43:09.599Z,10.07
2023-01-22T22:45:38.550Z,8.98
2023-01-22T22:48:07.547Z,9.30
2023-01-22T22:50:35.387Z,10.85
2023-01-22T22:53:04.594Z,9.57
2023-01-22T22:55:32.446Z,9.68
2023-01-22T22:58:00.475Z,9.38
2023-01-22T23:00:28.665Z,9.35
2023-01-22T23:02:57.146Z,8.63
2023-01-22T23:05:25.147Z,9.00
2023-01-22T23:07:53.127Z,8.70
2023-01-22T23:10:31.297Z,9.60
2023-01-22T23:13:01.480Z,9.57
2023-01-22T23:15:31.515Z,10.20
2023-01-22T23:18:00.722Z,10.75
2023-01-22T23:20:28.938Z,10.48
2023-01-22T23:22:58.132Z,10.95
2023-01-22T23:25:27.446Z,11.18
2023-01-22T23:27:55.776Z,11.35
2023-01-22T23:30:23.728Z,10.55
2023-01-22T23:32:51.683Z,11.00
2023-01-22T23:35:19.781Z,11.98
2023-01-22T23:37:47.842Z,11.77
2023-01-22T23:40:15.834Z,11.05
2023-01-22T23:42:48.789Z,11.00
2023-01-22T23:47:44.503Z,9.48
2023-01-22T23:50:13.031Z,11.63
2023-01-22T23:52:40.869Z,11.43
2023-01-22T23:55:09.421Z,11.13
2023-01-22T23:57:37.588Z,10.48
